createdAt,value
2023-03-03T00:01:34.361Z,25.83
2023-03-03T00:04:01.535Z,25.92
2023-03-03T00:06:30.390Z,26.63
2023-03-03T00:08:58.088Z,26.80
2023-03-03T00:11:25.164Z,27.08
2023-03-03T00:13:54.448Z,27.17
2023-03-03T00:16:30.696Z,26.63
2023-03-03T00:18:58.301Z,25.50
2023-03-03T00:21:41.959Z,27.73
2023-03-03T00:24:22.676Z,28.27
2023-03-03T00:26:57.336Z,25.75
2023-03-03T00:29:46.433Z,26.25
2023-03-03T00:32:31.904Z,27.27
2023-03-03T00:35:19.416Z,26.70
2023-03-03T00:37:46.991Z,25.92
2023-03-03T00:40:22.095Z,28.05
2023-03-03T00:42:57.796Z,26.08
2023-03-03T00:45:30.926Z,27.15
2023-03-03T00:47:58.882Z,24.15
2023-03-03T00:50:34.658Z,25.85
2023-03-03T00:53:21.807Z,26.65
2023-03-03T00:55:50.239Z,28.08
2023-03-03T00:58:18.736Z,27.73
2023-03-03T01:00:49.366Z,26.67
2023-03-03T01:03:21.810Z,27.90
2023-03-03T01:05:49.865Z,28.60
2023-03-03T01:08:16.991Z,27.02
2023-03-03T01:10:53.756Z,27.20
2023-03-03T01:13:24.088Z,27.85
2023-03-03T01:15:51.708Z,28.05
2023-03-03T01:18:18.936Z,28.50
2023-03-03T01:20:46.078Z,28.08
2023-03-03T01:23:13.377Z,26.70
2023-03-03T01:25:40.732Z,26.45
2023-03-03T01:28:07.721Z,26.35
2023-03-03T01:30:34.645Z,26.40
2023-03-03T01:33:01.791Z,26.55
2023-03-03T01:35:30.063Z,25.88
2023-03-03T01:37:58.106Z,26.80
2023-03-03T01:40:28.743Z,25.48
2023-03-03T01:42:58.794Z,27.02
2023-03-03T01:45:26.911Z,28.13
2023-03-03T01:47:55.338Z,26.38
2023-03-03T01:50:48.807Z,27.52
2023-03-03T01:53:36.426Z,25.02
2023-03-03T01:56:05.745Z,25.80
2023-03-03T01:58:37.409Z,25.98
2023-03-03T02:01:09.446Z,25.60
2023-03-03T02:03:36.507Z,27.27
2023-03-03T02:06:08.300Z,27.73
2023-03-03T02:08:56.643Z,25.52
2023-03-03T02:11:23.828Z,25.05
2023-03-03T02:13:50.739Z,25.67
2023-03-03T02:16:17.931Z,26.13
2023-03-03T02:18:45.485Z,28.10
2023-03-03T02:21:19.348Z,27.60
2023-03-03T02:24:08.444Z,27.67
2023-03-03T02:26:43.021Z,27.75
2023-03-03T02:29:11.059Z,25.88
2023-03-03T02:31:40.819Z,26.35
2023-03-03T02:34:07.918Z,25.88
2023-03-03T02:36:37.890Z,27.40
2023-03-03T02:39:27.063Z,28.58
2023-03-03T02:42:12.771Z,26.85
2023-03-03T02:44:44.428Z,25.52
2023-03-03T02:47:11.311Z,28.30
2023-03-03T02:49:39.648Z,26.85
2023-03-03T02:52:12.169Z,25.85
2023-03-03T02:54:45.270Z,26.20
2023-03-03T02:57:12.525Z,25.30
2023-03-03T02:59:39.445Z,25.13
2023-03-03T03:02:10.977Z,25.45
2023-03-03T03:04:38.235Z,26.08
2023-03-03T03:07:05.328Z,25.52
2023-03-03T03:09:34.895Z,26.67
2023-03-03T03:12:02.619Z,26.20
2023-03-03T03:14:32.553Z,25.10
2023-03-03T03:16:59.633Z,26.70
2023-03-03T03:19:28.482Z,23.60
2023-03-03T03:21:56.853Z,25.08
2023-03-03T03:24:23.869Z,26.33
2023-03-03T03:26:58.498Z,25.15
2023-03-03T03:29:27.169Z,25.35
2023-03-03T03:31:54.322Z,26.60
2023-03-03T03:34:21.413Z,27.00
2023-03-03T03:36:50.149Z,25.67
2023-03-03T03:39:19.096Z,25.80
2023-03-03T03:41:48.785Z,26.23
2023-03-03T03:44:17.344Z,26.05
2023-03-03T03:46:44.314Z,26.70
2023-03-03T03:49:11.654Z,26.77
2023-03-03T03:51:41.370Z,26.55
2023-03-03T03:54:10.411Z,26.42
2023-03-03T03:56:38.353Z,26.90
2023-03-03T03:59:09.212Z,25.08
2023-03-03T04:01:38.203Z,25.50
2023-03-03T04:04:05.684Z,25.35
2023-03-03T04:06:34.527Z,24.60
2023-03-03T04:09:02.308Z,25.65
2023-03-03T04:11:30.759Z,23.33
2023-03-03T04:13:57.814Z,25.85
2023-03-03T04:16:25.559Z,26.88
2023-03-03T04:18:52.513Z,24.55
2023-03-03T04:21:21.433Z,25.83
2023-03-03T04:23:49.214Z,26.35
2023-03-03T04:26:17.322Z,27.55
2023-03-03T04:28:45.757Z,26.15
2023-03-03T04:31:12.836Z,26.35
2023-03-03T04:33:39.904Z,25.20
2023-03-03T04:36:08.516Z,25.20
2023-03-03T04:38:35.533Z,26.08
2023-03-03T04:41:02.442Z,26.55
2023-03-03T04:43:33.938Z,27.38
2023-03-03T04:46:01.836Z,26.75
2023-03-03T04:48:29.251Z,25.45
2023-03-03T04:50:56.485Z,26.08
2023-03-03T04:53:23.577Z,27.52
2023-03-03T04:55:52.267Z,26.85
2023-03-03T04:58:20.928Z,27.77
2023-03-03T05:00:53.249Z,25.85
2023-03-03T05:03:20.669Z,28.05
2023-03-03T05:05:48.366Z,26.27
2023-03-03T05:08:15.397Z,26.73
2023-03-03T05:10:42.302Z,27.13
2023-03-03T05:13:09.605Z,24.98
2023-03-03T05:15:36.852Z,27.67
2023-03-03T05:18:04.209Z,26.67
2023-03-03T05:20:31.203Z,27.98
2023-03-03T05:22:59.965Z,26.85
2023-03-03T05:25:27.015Z,27.27
2023-03-03T05:27:55.003Z,28.63
2023-03-03T05:30:22.004Z,26.50
2023-03-03T05:32:49.616Z,27.92
2023-03-03T05:35:16.693Z,27.83
2023-03-03T05:37:47.279Z,26.75
2023-03-03T05:40:15.043Z,26.73
2023-03-03T05:42:43.116Z,26.55
2023-03-03T05:45:10.728Z,26.77
2023-03-03T05:47:37.865Z,27.15
2023-03-03T05:50:05.817Z,27.20
2023-03-03T05:52:32.692Z,26.58
2023-03-03T05:54:59.594Z,27.73
2023-03-03T05:57:26.483Z,27.55
2023-03-03T05:59:53.493Z,29.15
2023-03-03T06:02:20.574Z,27.23
2023-03-03T06:04:47.635Z,27.17
2023-03-03T06:07:14.655Z,26.38
2023-03-03T06:09:41.624Z,27.92
2023-03-03T06:12:08.538Z,26.70
2023-03-03T06:14:35.567Z,27.98
2023-03-03T06:17:02.902Z,28.15
2023-03-03T06:19:29.815Z,28.27
2023-03-03T06:21:58.844Z,28.27
2023-03-03T06:24:30.372Z,28.48
2023-03-03T06:27:01.735Z,29.17
2023-03-03T06:29:29.143Z,27.48
2023-03-03T06:31:56.191Z,28.00
2023-03-03T06:34:23.183Z,27.92
2023-03-03T06:36:50.157Z,27.90
2023-03-03T06:39:17.096Z,28.83
2023-03-03T06:41:44.097Z,27.98
2023-03-03T06:44:12.052Z,30.90
2023-03-03T06:46:39.149Z,28.33
2023-03-03T06:49:06.063Z,34.08
2023-03-03T06:51:36.298Z,34.97
2023-03-03T06:54:12.703Z,30.15
2023-03-03T06:56:40.458Z,35.08
2023-03-03T06:59:27.745Z,34.83
2023-03-03T07:01:54.875Z,34.22
2023-03-03T07:04:33.649Z,33.25
2023-03-03T07:07:11.496Z,33.22
2023-03-03T07:09:38.426Z,33.38
2023-03-03T07:12:13.835Z,33.85
2023-03-03T07:14:52.026Z,34.95
2023-03-03T07:17:20.752Z,35.33
2023-03-03T07:19:48.149Z,37.63
2023-03-03T07:22:24.594Z,34.00
2023-03-03T07:24:54.541Z,40.38
2023-03-03T07:27:29.569Z,43.33
2023-03-03T07:30:12.511Z,44.63
2023-03-03T07:32:46.378Z,32.20
2023-03-03T07:37:52.742Z,34.55
2023-03-03T07:40:26.195Z,40.13
2023-03-03T07:42:53.229Z,32.92
2023-03-03T07:45:36.534Z,32.92
2023-03-03T07:48:25.271Z,32.10
2023-03-03T07:50:52.890Z,32.15
2023-03-03T07:53:38.252Z,32.45
2023-03-03T07:56:35.070Z,32.67
2023-03-03T07:59:16.171Z,34.63
2023-03-03T08:01:46.292Z,34.63
2023-03-03T08:04:21.150Z,36.20
2023-03-03T08:06:50.826Z,35.17
2023-03-03T08:09:17.709Z,35.30
2023-03-03T08:12:11.948Z,35.58
2023-03-03T08:14:39.344Z,34.20
2023-03-03T08:17:22.915Z,33.35
2023-03-03T08:19:51.345Z,33.28
2023-03-03T08:22:25.029Z,33.75
2023-03-03T08:24:52.059Z,32.67
2023-03-03T08:27:19.184Z,31.48
2023-03-03T08:29:48.442Z,31.50
2023-03-03T08:32:15.856Z,31.73
2023-03-03T08:34:42.791Z,30.33
2023-03-03T08:37:09.657Z,30.13
2023-03-03T08:39:36.751Z,29.50
2023-03-03T08:42:03.718Z,31.35
2023-03-03T08:44:30.788Z,29.63
2023-03-03T08:46:57.686Z,31.83
2023-03-03T08:49:25.721Z,29.80
2023-03-03T08:51:52.874Z,30.98
2023-03-03T08:54:20.324Z,31.55
2023-03-03T08:56:47.569Z,30.15
2023-03-03T08:59:14.541Z,33.05
2023-03-03T09:01:43.610Z,32.15
2023-03-03T09:04:11.716Z,29.60
2023-03-03T09:06:38.626Z,31.27
2023-03-03T09:09:05.955Z,30.52
2023-03-03T09:11:33.919Z,30.73
2023-03-03T09:14:12.932Z,30.33
2023-03-03T09:16:46.066Z,29.83
2023-03-03T09:19:30.801Z,27.55
2023-03-03T09:22:03.729Z,29.35
2023-03-03T09:24:31.791Z,28.17
2023-03-03T09:26:59.686Z,29.15
2023-03-03T09:29:36.592Z,28.63
2023-03-03T09:32:19.357Z,29.48
2023-03-03T09:34:47.266Z,28.42
2023-03-03T09:37:29.112Z,29.85
2023-03-03T09:39:57.720Z,29.58
2023-03-03T09:42:42.873Z,28.00
2023-03-03T09:45:38.691Z,29.05
2023-03-03T09:48:29.103Z,27.23
2023-03-03T09:50:56.127Z,27.92
2023-03-03T09:53:45.211Z,28.33
2023-03-03T09:56:30.644Z,28.40
2023-03-03T09:59:25.429Z,28.90
2023-03-03T10:02:14.381Z,26.80
2023-03-03T10:04:56.301Z,26.80
2023-03-03T10:07:43.443Z,27.73
2023-03-03T10:10:19.474Z,28.40
2023-03-03T10:13:18.960Z,28.77
2023-03-03T10:15:57.854Z,26.98
2023-03-03T10:18:33.931Z,30.48
2023-03-03T10:21:17.356Z,27.30
2023-03-03T10:24:00.364Z,29.65
2023-03-03T10:27:01.419Z,29.52
2023-03-03T10:29:41.749Z,29.73
2023-03-03T10:32:30.452Z,30.50
2023-03-03T10:35:19.133Z,29.63
2023-03-03T10:37:49.226Z,29.63
2023-03-03T10:40:33.146Z,29.60
2023-03-03T10:43:31.776Z,28.95
2023-03-03T10:46:13.070Z,31.25
2023-03-03T10:49:05.551Z,31.00
2023-03-03T10:51:53.933Z,30.48
2023-03-03T10:54:49.153Z,30.98
2023-03-03T10:57:40.514Z,31.83
2023-03-03T11:00:46.661Z,30.38
2023-03-03T11:03:28.684Z,30.38
2023-03-03T11:06:01.352Z,31.85
2023-03-03T11:09:01.015Z,30.33
2023-03-03T11:11:50.302Z,29.90
2023-03-03T11:14:49.206Z,30.17
2023-03-03T11:17:44.206Z,29.90
2023-03-03T11:20:20.536Z,28.73
2023-03-03T11:22:54.204Z,30.80
2023-03-03T11:25:43.034Z,33.28
2023-03-03T11:28:40.826Z,31.73
2023-03-03T11:31:13.371Z,32.03
2023-03-03T11:33:47.998Z,32.03
2023-03-03T11:36:36.906Z,30.08
2023-03-03T11:39:08.971Z,31.30
2023-03-03T11:42:02.103Z,32.17
2023-03-03T11:44:43.996Z,32.80
2023-03-03T11:47:37.924Z,30.67
2023-03-03T11:50:37.085Z,29.83
2023-03-03T11:53:52.364Z,32.25
2023-03-03T11:56:39.231Z,32.65
2023-03-03T11:59:24.748Z,32.67
2023-03-03T12:02:05.869Z,31.15
2023-03-03T12:05:05.344Z,30.85
2023-03-03T12:08:26.046Z,31.35
2023-03-03T12:11:09.701Z,30.80
2023-03-03T12:13:55.609Z,30.80
2023-03-03T12:16:55.139Z,33.42
2023-03-03T12:19:39.615Z,36.33
2023-03-03T12:22:41.909Z,33.75
2023-03-03T12:25:43.712Z,30.48
2023-03-03T12:28:51.756Z,29.98
2023-03-03T12:31:24.703Z,30.13
2023-03-03T12:36:42.407Z,31.35
2023-03-03T12:39:34.691Z,30.67
2023-03-03T12:42:26.846Z,30.02
2023-03-03T12:45:15.622Z,31.58
2023-03-03T12:47:51.767Z,31.73
2023-03-03T12:50:36.461Z,29.40
2023-03-03T12:53:23.006Z,30.95
2023-03-03T12:56:13.746Z,31.27
2023-03-03T12:58:49.608Z,31.25
2023-03-03T13:01:55.350Z,29.80
2023-03-03T13:04:50.697Z,28.20
2023-03-03T13:07:48.431Z,30.70
2023-03-03T13:10:35.890Z,28.42
2023-03-03T13:13:05.598Z,31.05
2023-03-03T13:15:54.806Z,30.48
2023-03-03T13:18:29.913Z,30.90
2023-03-03T13:21:03.180Z,30.20
2023-03-03T13:23:56.520Z,27.35
2023-03-03T13:29:10.369Z,28.65
2023-03-03T13:31:46.286Z,31.30
2023-03-03T13:34:53.185Z,29.75
2023-03-03T13:37:32.458Z,30.02
2023-03-03T13:40:05.736Z,31.35
2023-03-03T13:42:35.559Z,29.40
2023-03-03T13:45:12.579Z,30.88
2023-03-03T13:47:52.324Z,31.38
2023-03-03T13:50:25.897Z,31.20
2023-03-03T13:53:25.093Z,32.10
2023-03-03T13:56:29.112Z,30.00
2023-03-03T13:59:02.261Z,33.83
2023-03-03T14:01:41.268Z,32.00
2023-03-03T14:04:27.154Z,33.28
2023-03-03T14:07:03.462Z,33.78
2023-03-03T14:09:51.760Z,34.15
2023-03-03T14:12:40.801Z,34.13
2023-03-03T14:15:30.972Z,37.55
2023-03-03T14:18:07.127Z,33.63
2023-03-03T14:20:58.552Z,33.80
2023-03-03T14:23:57.390Z,33.17
2023-03-03T14:26:24.529Z,32.80
2023-03-03T14:29:03.645Z,32.20
2023-03-03T14:31:40.323Z,32.15
2023-03-03T14:34:41.254Z,33.00
2023-03-03T14:37:23.706Z,33.47
2023-03-03T14:40:21.232Z,34.25
2023-03-03T14:42:56.490Z,31.88
2023-03-03T14:45:34.529Z,33.92
2023-03-03T14:48:17.871Z,32.70
2023-03-03T14:53:33.001Z,32.97
2023-03-03T14:56:23.163Z,33.88
2023-03-03T14:58:55.126Z,34.40
2023-03-03T15:01:30.191Z,32.80
2023-03-03T15:04:04.657Z,33.50
2023-03-03T15:06:37.875Z,33.42
2023-03-03T15:09:38.435Z,31.92
2023-03-03T15:12:25.166Z,33.88
2023-03-03T15:15:22.676Z,32.80
2023-03-03T15:17:54.330Z,32.00
2023-03-03T15:20:38.515Z,32.30
2023-03-03T15:23:14.573Z,31.45
2023-03-03T15:26:04.692Z,32.67
2023-03-03T15:29:09.665Z,32.05
2023-03-03T15:31:54.195Z,32.20
2023-03-03T15:34:33.619Z,34.97
2023-03-03T15:37:31.511Z,32.35
2023-03-03T15:40:25.880Z,32.22
2023-03-03T15:43:06.040Z,35.72
2023-03-03T15:45:56.160Z,36.08
2023-03-03T15:48:56.449Z,33.75
2023-03-03T15:51:46.073Z,34.88
2023-03-03T15:54:31.768Z,34.45
2023-03-03T15:57:01.753Z,32.90
2023-03-03T15:59:42.365Z,35.03
2023-03-03T16:02:14.489Z,34.20
2023-03-03T16:05:01.501Z,40.80
2023-03-03T16:07:57.687Z,45.22
2023-03-03T16:10:33.554Z,34.55
2023-03-03T16:13:22.120Z,33.95
2023-03-03T16:16:25.631Z,33.95
2023-03-03T16:21:48.145Z,33.88
2023-03-03T16:24:53.483Z,30.30
2023-03-03T16:27:39.533Z,30.75
2023-03-03T16:30:12.335Z,31.67
2023-03-03T16:32:57.478Z,33.75
2023-03-03T16:35:28.286Z,34.63
2023-03-03T16:37:58.340Z,33.92
2023-03-03T16:40:28.419Z,31.58
2023-03-03T16:43:17.132Z,34.78
2023-03-03T16:45:44.676Z,32.95
2023-03-03T16:48:17.515Z,36.78
2023-03-03T16:50:59.801Z,33.88
2023-03-03T16:53:27.543Z,35.17
2023-03-03T16:56:16.421Z,31.63
2023-03-03T16:58:58.300Z,34.13
2023-03-03T17:01:49.680Z,34.83
2023-03-03T17:04:31.976Z,33.67
2023-03-03T17:07:17.035Z,34.63
2023-03-03T17:10:17.110Z,32.85
2023-03-03T17:12:50.237Z,30.77
2023-03-03T17:15:50.256Z,32.60
2023-03-03T17:18:17.161Z,30.25
2023-03-03T17:20:50.119Z,34.75
2023-03-03T17:26:03.526Z,32.38
2023-03-03T17:29:17.043Z,31.15
2023-03-03T17:32:08.203Z,30.40
2023-03-03T17:34:38.391Z,32.85
2023-03-03T17:37:23.821Z,32.35
2023-03-03T17:40:06.234Z,31.48
2023-03-03T17:42:39.777Z,30.58
2023-03-03T17:45:12.705Z,33.00
2023-03-03T17:50:30.677Z,30.10
2023-03-03T17:53:12.666Z,31.42
2023-03-03T17:56:03.027Z,28.98
2023-03-03T17:58:57.500Z,30.77
2023-03-03T18:01:43.015Z,30.73
2023-03-03T18:04:25.152Z,36.13
2023-03-03T18:07:17.185Z,32.40
2023-03-03T18:09:52.764Z,30.25
2023-03-03T18:12:59.232Z,34.03
2023-03-03T18:15:38.351Z,42.58
2023-03-03T18:18:22.175Z,35.28
2023-03-03T18:21:00.179Z,36.35
2023-03-03T18:23:41.969Z,38.13
2023-03-03T18:26:36.399Z,33.60
2023-03-03T18:29:25.137Z,32.28
2023-03-03T18:31:58.498Z,30.20
2023-03-03T18:34:35.659Z,31.85
2023-03-03T18:37:27.362Z,32.80
2023-03-03T18:40:03.528Z,33.15
2023-03-03T18:42:44.175Z,32.85
2023-03-03T18:45:31.103Z,34.35
2023-03-03T18:48:11.380Z,32.40
2023-03-03T18:50:46.648Z,32.13
2023-03-03T18:53:23.125Z,32.17
2023-03-03T18:56:00.442Z,34.28
2023-03-03T18:58:32.884Z,33.10
2023-03-03T19:01:02.834Z,32.20
2023-03-03T19:03:55.117Z,35.25
2023-03-03T19:06:42.998Z,32.72
2023-03-03T19:09:17.554Z,35.70
2023-03-03T19:11:50.545Z,32.90
2023-03-03T19:16:45.923Z,33.67
2023-03-03T19:19:16.599Z,32.83
2023-03-03T19:21:48.129Z,33.50
2023-03-03T19:24:36.458Z,32.13
2023-03-03T19:27:18.270Z,33.30
2023-03-03T19:29:45.260Z,32.50
2023-03-03T19:32:26.389Z,31.90
2023-03-03T19:35:16.839Z,32.47
2023-03-03T19:38:09.055Z,32.13
2023-03-03T19:40:45.332Z,32.03
2023-03-03T19:43:27.342Z,35.25
2023-03-03T19:46:23.073Z,35.10
2023-03-03T19:49:18.574Z,34.92
2023-03-03T19:51:53.296Z,36.13
2023-03-03T19:54:57.752Z,34.85
2023-03-03T19:57:55.391Z,35.22
2023-03-03T20:00:42.061Z,36.05
2023-03-03T20:03:27.669Z,38.58
2023-03-03T20:06:06.554Z,45.72
2023-03-03T20:08:54.226Z,89.55
2023-03-03T20:11:36.720Z,81.50
2023-03-03T20:14:26.744Z,119.07
2023-03-03T20:16:58.905Z,81.63
2023-03-03T20:19:35.166Z,56.70
2023-03-03T20:22:12.336Z,54.58
2023-03-03T20:25:15.642Z,49.67
2023-03-03T20:28:14.544Z,39.58
2023-03-03T20:30:54.142Z,41.78
2023-03-03T20:33:33.100Z,36.03
2023-03-03T20:36:18.884Z,39.67
2023-03-03T20:39:04.485Z,36.10
2023-03-03T20:41:50.290Z,33.63
2023-03-03T20:44:45.595Z,34.20
2023-03-03T20:47:24.720Z,35.33
2023-03-03T20:50:04.002Z,35.00
2023-03-03T20:52:31.402Z,38.40
2023-03-03T20:55:19.492Z,37.75
2023-03-03T20:58:02.670Z,36.30
2023-03-03T21:03:31.275Z,33.42
2023-03-03T21:08:43.260Z,33.00
2023-03-03T21:11:10.614Z,34.42
2023-03-03T21:13:49.002Z,34.33
2023-03-03T21:16:36.747Z,34.70
2023-03-03T21:19:06.838Z,35.90
2023-03-03T21:21:37.211Z,37.47
2023-03-03T21:24:04.839Z,36.55
2023-03-03T21:26:47.658Z,38.25
2023-03-03T21:29:27.678Z,35.53
2023-03-03T21:31:56.086Z,38.75
2023-03-03T21:34:33.969Z,41.00
2023-03-03T21:37:03.221Z,36.67
2023-03-03T21:39:37.272Z,36.47
2023-03-03T21:42:09.069Z,36.75
2023-03-03T21:44:40.533Z,36.55
2023-03-03T21:47:09.729Z,37.33
2023-03-03T21:49:40.359Z,37.65
2023-03-03T21:52:07.332Z,36.50
2023-03-03T21:54:34.336Z,35.15
2023-03-03T21:57:01.260Z,35.90
2023-03-03T21:59:28.518Z,36.83
2023-03-03T22:01:55.729Z,36.47
2023-03-03T22:04:22.807Z,35.78
2023-03-03T22:06:50.652Z,38.90
2023-03-03T22:09:17.782Z,40.95
2023-03-03T22:11:45.432Z,42.38
2023-03-03T22:14:12.464Z,41.53
2023-03-03T22:16:39.668Z,37.10
2023-03-03T22:19:09.222Z,41.25
2023-03-03T22:21:37.696Z,36.90
2023-03-03T22:24:05.815Z,36.47
2023-03-03T22:26:33.543Z,36.20
2023-03-03T22:29:00.531Z,36.42
2023-03-03T22:31:27.914Z,37.08
2023-03-03T22:33:55.144Z,37.72
2023-03-03T22:36:22.120Z,37.95
2023-03-03T22:38:49.422Z,36.38
2023-03-03T22:41:17.716Z,34.25
2023-03-03T22:43:44.752Z,35.28
2023-03-03T22:46:12.810Z,37.42
2023-03-03T22:48:40.395Z,38.45
2023-03-03T22:51:07.512Z,40.58
2023-03-03T22:53:34.526Z,39.92
2023-03-03T22:56:01.608Z,40.95
2023-03-03T22:58:29.420Z,39.33
2023-03-03T23:00:56.837Z,37.65
2023-03-03T23:03:24.034Z,36.30
2023-03-03T23:05:52.070Z,35.42
2023-03-03T23:08:20.627Z,40.25
2023-03-03T23:10:48.422Z,40.58
2023-03-03T23:13:15.979Z,39.40
2023-03-03T23:15:43.219Z,41.42
2023-03-03T23:18:10.240Z,40.08
2023-03-03T23:20:37.559Z,39.00
2023-03-03T23:23:04.715Z,37.55
2023-03-03T23:25:31.821Z,40.00
2023-03-03T23:27:58.789Z,36.35
2023-03-03T23:30:26.090Z,40.03
2023-03-03T23:32:53.343Z,36.25
2023-03-03T23:35:20.625Z,39.25
2023-03-03T23:37:48.729Z,37.20
2023-03-03T23:40:17.312Z,35.70
2023-03-03T23:42:44.690Z,37.83
2023-03-03T23:45:13.279Z,35.75
2023-03-03T23:47:40.503Z,37.22
2023-03-03T23:50:10.106Z,37.05
2023-03-03T23:52:37.186Z,38.45
2023-03-03T23:55:05.112Z,47.00
2023-03-03T23:57:32.449Z,38.40
2023-03-03T23:59:59.493Z,36.88
